Decorra, Illinois
Current Conditions -  °F | °C
As of 10:53 PM on Sunday 21 Dec 2014 (Local Time) from KBRL Reporting Station
Light Rain Light Rain  
Wind Chill: 32°   Ceiling: 6000
Heat Index: 39°   Visibility: 10mi
Dew Point: 33°   Wind: 10mph
Humidity: 79%   Direction: 160°SSE
Pressure: 29.9"   Gusts: NA
Location:  40.7638°N, 90.9614°W
Report Text: KBRL 220453Z AUTO 16009KT 10SM -RA SCT040 OVC060 04/01 A2990 RMK AO2 RAB42 SLP128 P0000 T00390006
Loading
Personal Weather Stations






























Interactive Weather Map New forecast layout! Learn more

10-Day Weather Forecast

Advertisements
Track Severe Weather on mobile